Time;durP1;ratioP1;P1;durP2;ratioP2;P2;SDS_P1;SDS_P2;PMS_P1;PMS_P2;Temp;Humidity;BMP_temperature;BMP_pressure;BME280_temperature;BME280_humidity;BME280_pressure;Samples;Min_cycle;Max_cycle;Signal;HPM_P1;HPM_P2
2021/12/26 00:00:59;;;;;;;4.53;3.90;;;;;;;;;;5013338;28;20220;-48
2021/12/26 00:03:25;;;;;;;3.67;3.13;;;;;;;;;;5013271;28;20195;-48
2021/12/26 00:05:52;;;;;;;4.35;2.63;;;;;;;;;;5012431;28;20243;-48
2021/12/26 00:08:19;;;;;;;4.20;3.40;;;;;;;;;;5013190;28;20226;-48
2021/12/26 00:10:47;;;;;;;4.47;3.85;;;;;;;;;;5013286;28;20521;-48
2021/12/26 00:13:13;;;;;;;3.75;3.42;;;;;;;;;;5013101;28;20184;-48
2021/12/26 00:15:39;;;;;;;3.50;3.20;;;;;;;;;;5012700;28;20526;-49
2021/12/26 00:18:05;;;;;;;7.47;2.87;;;;;;;;;;5013059;28;20251;-48
2021/12/26 00:20:32;;;;;;;7.57;3.45;;;;;;;;;;5012922;28;20403;-48
2021/12/26 00:22:58;;;;;;;5.05;3.17;;;;;;;;;;5013025;28;20175;-48
2021/12/26 00:25:24;;;;;;;3.67;3.33;;;;;;;;;;5012248;28;20180;-48
2021/12/26 00:27:50;;;;;;;3.63;3.33;;;;;;;;;;5012655;28;20545;-49
2021/12/26 00:30:18;;;;;;;4.90;4.10;;;;;;;;;;5012792;28;20759;-48
2021/12/26 00:32:44;;;;;;;3.65;3.35;;;;;;;;;;5013171;28;20970;-48
2021/12/26 00:35:11;;;;;;;4.18;3.80;;;;;;;;;;5012000;28;20180;-50
2021/12/26 00:37:37;;;;;;;3.85;3.33;;;;;;;;;;5012563;28;20275;-48
2021/12/26 00:40:04;;;;;;;5.07;3.45;;;;;;;;;;5012672;28;20222;-48
2021/12/26 00:42:30;;;;;;;6.03;3.72;;;;;;;;;;5012601;28;20191;-48
2021/12/26 00:44:56;;;;;;;2.77;2.57;;;;;;;;;;5011907;28;20169;-48
2021/12/26 00:47:22;;;;;;;5.80;3.53;;;;;;;;;;5012389;28;20485;-48
2021/12/26 00:49:48;;;;;;;11.30;4.32;;;;;;;;;;5012284;28;20411;-48
2021/12/26 00:52:14;;;;;;;4.30;3.50;;;;;;;;;;5012413;28;20238;-48
2021/12/26 00:54:40;;;;;;;5.63;3.60;;;;;;;;;;5010527;28;20445;-48
2021/12/26 00:57:06;;;;;;;4.07;3.20;;;;;;;;;;5012361;28;20940;-48
2021/12/26 00:59:32;;;;;;;6.37;3.30;;;;;;;;;;5012325;28;20773;-48
2021/12/26 01:01:58;;;;;;;3.30;3.00;;;;;;;;;;5012312;28;20411;-48
2021/12/26 01:04:24;;;;;;;3.33;3.03;;;;;;;;;;5012143;28;20180;-48
2021/12/26 01:06:51;;;;;;;4.17;3.70;;;;;;;;;;5011625;28;20509;-48
2021/12/26 01:09:22;;;;;;;3.55;3.20;;;;;;;;;;5012252;28;20411;-48
2021/12/26 01:11:52;;;;;;;3.28;3.08;;;;;;;;;;5012279;28;20160;-48
2021/12/26 01:14:25;;;;;;;4.30;3.35;;;;;;;;;;5012088;28;20196;-48
2021/12/26 01:17:00;;;;;;;6.82;4.30;;;;;;;;;;5011398;28;20246;-48
2021/12/26 01:19:32;;;;;;;4.45;3.88;;;;;;;;;;5012146;28;20251;-48
2021/12/26 01:21:59;;;;;;;5.85;4.20;;;;;;;;;;5012180;28;20539;-49
2021/12/26 01:24:25;;;;;;;5.88;4.05;;;;;;;;;;5011984;28;20168;-48
2021/12/26 01:26:51;;;;;;;4.55;4.07;;;;;;;;;;5011352;28;20210;-48
2021/12/26 01:29:17;;;;;;;6.20;4.10;;;;;;;;;;5011883;28;20656;-48
2021/12/26 01:31:43;;;;;;;6.43;3.88;;;;;;;;;;5012056;28;20399;-48
2021/12/26 01:34:09;;;;;;;4.10;3.23;;;;;;;;;;5011956;28;20708;-48
2021/12/26 01:36:35;;;;;;;4.13;3.72;;;;;;;;;;5011128;28;20422;-48
2021/12/26 01:39:02;;;;;;;5.75;3.83;;;;;;;;;;5011968;28;20637;-48
2021/12/26 01:41:29;;;;;;;6.78;3.92;;;;;;;;;;5011921;28;20640;-48
2021/12/26 01:43:58;;;;;;;6.50;4.30;;;;;;;;;;5011753;28;20529;-48
2021/12/26 01:46:26;;;;;;;4.45;4.05;;;;;;;;;;5011097;28;20195;-48
2021/12/26 01:49:03;;;;;;;7.60;4.20;;;;;;;;;;5012129;28;20172;-48
2021/12/26 01:51:29;;;;;;;6.07;4.50;;;;;;;;;;5011822;28;20180;-48
2021/12/26 01:53:55;;;;;;;5.32;4.22;;;;;;;;;;5012132;28;20225;-48
2021/12/26 01:56:21;;;;;;;6.07;3.17;;;;;;;;;;5010926;28;20193;-48
2021/12/26 01:58:47;;;;;;;4.63;3.53;;;;;;;;;;5011759;28;20223;-48
2021/12/26 02:01:13;;;;;;;4.80;3.13;;;;;;;;;;5011146;28;20884;-48
2021/12/26 02:03:40;;;;;;;3.45;3.15;;;;;;;;;;5014201;28;20411;-48
2021/12/26 02:06:06;;;;;;;3.95;3.55;;;;;;;;;;5014377;28;20185;-48
2021/12/26 02:08:33;;;;;;;3.85;3.45;;;;;;;;;;5015344;28;20545;-48
2021/12/26 02:11:00;;;;;;;4.70;4.05;;;;;;;;;;5015280;28;20172;-49
2021/12/26 02:13:27;;;;;;;4.60;4.00;;;;;;;;;;5015197;28;20703;-48
2021/12/26 02:15:53;;;;;;;5.18;4.20;;;;;;;;;;5014562;28;20259;-48
2021/12/26 02:18:19;;;;;;;4.95;4.05;;;;;;;;;;5015269;28;20164;-48
2021/12/26 02:28:24;;;;;;;4.15;3.75;;;;;;;;;;5015135;28;20222;-49
2021/12/26 02:30:50;;;;;;;4.88;4.28;;;;;;;;;;5015051;28;20251;-48
2021/12/26 02:33:18;;;;;;;4.95;4.45;;;;;;;;;;5014906;28;20196;-48
2021/12/26 02:35:44;;;;;;;5.03;3.58;;;;;;;;;;5013853;28;20627;-48
2021/12/26 02:38:11;;;;;;;7.88;4.13;;;;;;;;;;5014812;28;20183;-48
2021/12/26 02:40:37;;;;;;;4.40;4.00;;;;;;;;;;5014816;28;20190;-48
2021/12/26 02:43:04;;;;;;;5.05;3.95;;;;;;;;;;5014772;28;20173;-48
2021/12/26 02:45:31;;;;;;;3.95;3.55;;;;;;;;;;5013936;28;20171;-48
2021/12/26 02:47:57;;;;;;;3.85;3.45;;;;;;;;;;5014798;28;20188;-48
2021/12/26 02:50:28;;;;;;;3.40;3.15;;;;;;;;;;5014635;28;20207;-48
2021/12/26 02:52:54;;;;;;;4.35;3.78;;;;;;;;;;5014580;28;20203;-48
2021/12/26 02:55:21;;;;;;;3.65;3.35;;;;;;;;;;5013910;28;20164;-48
2021/12/26 02:57:48;;;;;;;4.47;3.97;;;;;;;;;;5014389;28;20195;-48
2021/12/26 03:00:16;;;;;;;4.35;3.55;;;;;;;;;;5014504;28;20183;-48
2021/12/26 03:02:47;;;;;;;4.00;3.60;;;;;;;;;;5014434;28;20176;-49
2021/12/26 03:05:14;;;;;;;4.32;3.95;;;;;;;;;;5013713;28;20181;-49
2021/12/26 03:07:40;;;;;;;6.55;4.30;;;;;;;;;;5014292;28;20188;-48
2021/12/26 03:10:10;;;;;;;4.57;3.30;;;;;;;;;;5014241;28;20168;-47
2021/12/26 03:12:40;;;;;;;3.85;3.35;;;;;;;;;;5014177;28;20554;-48
2021/12/26 03:15:06;;;;;;;4.80;2.92;;;;;;;;;;5012462;28;20664;-48
2021/12/26 03:17:32;;;;;;;4.13;3.72;;;;;;;;;;5013942;28;20267;-48
2021/12/26 03:19:58;;;;;;;3.90;3.50;;;;;;;;;;5014145;28;20590;-48
2021/12/26 03:22:26;;;;;;;7.03;3.83;;;;;;;;;;5014138;28;20396;-48
2021/12/26 03:24:52;;;;;;;4.07;3.67;;;;;;;;;;5013333;28;20987;-48
2021/12/26 03:27:19;;;;;;;6.53;3.83;;;;;;;;;;5013607;28;20259;-49
2021/12/26 03:29:44;;;;;;;5.13;3.70;;;;;;;;;;5013858;28;20514;-48
2021/12/26 03:32:10;;;;;;;4.17;3.70;;;;;;;;;;5013847;28;20264;-48
2021/12/26 03:34:44;;;;;;;3.80;3.13;;;;;;;;;;5013090;28;20464;-48
2021/12/26 03:37:10;;;;;;;3.72;3.42;;;;;;;;;;5013875;28;20518;-48
2021/12/26 03:39:36;;;;;;;4.50;3.80;;;;;;;;;;5013730;28;20173;-48
2021/12/26 03:42:02;;;;;;;5.43;3.43;;;;;;;;;;5013767;28;20508;-48
2021/12/26 03:44:28;;;;;;;3.83;3.53;;;;;;;;;;5013327;28;20403;-48
2021/12/26 03:46:54;;;;;;;4.20;3.80;;;;;;;;;;5013094;28;20427;-48
2021/12/26 03:49:20;;;;;;;4.63;3.50;;;;;;;;;;5013626;28;20907;-48
2021/12/26 03:51:45;;;;;;;3.93;3.20;;;;;;;;;;5013521;28;20772;-48
2021/12/26 03:54:12;;;;;;;3.60;3.30;;;;;;;;;;5013317;28;20490;-48
2021/12/26 03:56:38;;;;;;;4.13;3.72;;;;;;;;;;5012702;28;20535;-48
2021/12/26 03:59:04;;;;;;;4.05;3.22;;;;;;;;;;5013415;28;20672;-48
2021/12/26 04:01:30;;;;;;;5.47;4.03;;;;;;;;;;5013287;28;20204;-48
2021/12/26 04:03:56;;;;;;;21.00;4.45;;;;;;;;;;5013306;28;20414;-48
2021/12/26 04:06:22;;;;;;;3.50;3.20;;;;;;;;;;5012494;28;20188;-48
2021/12/26 04:08:48;;;;;;;3.75;3.08;;;;;;;;;;5013264;28;20394;-48
2021/12/26 04:11:14;;;;;;;7.60;3.65;;;;;;;;;;5013187;28;20286;-49
2021/12/26 04:13:40;;;;;;;3.53;3.10;;;;;;;;;;5013188;28;20503;-48
2021/12/26 04:16:07;;;;;;;3.40;3.10;;;;;;;;;;5012291;28;20187;-48
2021/12/26 04:18:33;;;;;;;5.00;3.78;;;;;;;;;;5013037;28;20168;-48
2021/12/26 04:20:59;;;;;;;3.42;2.90;;;;;;;;;;5012992;28;20310;-48
2021/12/26 04:23:25;;;;;;;4.47;3.40;;;;;;;;;;5012907;28;20172;-49
2021/12/26 04:25:51;;;;;;;5.03;2.80;;;;;;;;;;5011781;28;20630;-48
2021/12/26 04:28:19;;;;;;;5.30;2.97;;;;;;;;;;5012751;28;20215;-48
2021/12/26 04:30:45;;;;;;;2.83;2.63;;;;;;;;;;5012872;28;21290;-48
2021/12/26 04:33:11;;;;;;;3.42;3.20;;;;;;;;;;5012682;28;20576;-48
2021/12/26 04:35:37;;;;;;;3.43;3.13;;;;;;;;;;5011965;28;20176;-49
2021/12/26 04:38:04;;;;;;;3.35;3.15;;;;;;;;;;5012687;28;20896;-48
2021/12/26 04:40:30;;;;;;;3.78;2.90;;;;;;;;;;5012645;28;20187;-49
2021/12/26 04:42:56;;;;;;;3.30;3.10;;;;;;;;;;5012557;28;20549;-49
2021/12/26 04:45:22;;;;;;;4.32;4.03;;;;;;;;;;5011936;28;20648;-49
2021/12/26 04:47:49;;;;;;;7.10;3.20;;;;;;;;;;5012441;28;20193;-48
2021/12/26 04:50:17;;;;;;;3.63;3.25;;;;;;;;;;5013255;28;20168;-48
2021/12/26 04:52:45;;;;;;;5.70;3.20;;;;;;;;;;5012348;28;20200;-48
2021/12/26 04:55:12;;;;;;;4.00;3.22;;;;;;;;;;5011832;28;20618;-48
2021/12/26 04:57:38;;;;;;;3.25;3.00;;;;;;;;;;5012183;28;20287;-48
2021/12/26 05:00:06;;;;;;;2.92;2.72;;;;;;;;;;5012429;28;20160;-48
2021/12/26 05:02:35;;;;;;;8.40;3.50;;;;;;;;;;5012303;28;20168;-48
2021/12/26 05:05:01;;;;;;;4.35;3.47;;;;;;;;;;5011718;28;20255;-48
2021/12/26 05:07:27;;;;;;;4.38;3.90;;;;;;;;;;5012143;28;20184;-49
2021/12/26 05:09:53;;;;;;;6.67;2.90;;;;;;;;;;5012375;28;20172;-48
2021/12/26 05:12:19;;;;;;;2.63;2.47;;;;;;;;;;5012007;28;20495;-48
2021/12/26 05:14:45;;;;;;;4.40;3.20;;;;;;;;;;5011534;28;20412;-48
2021/12/26 05:17:11;;;;;;;3.40;3.10;;;;;;;;;;5012089;28;20427;-48
2021/12/26 05:19:37;;;;;;;3.90;3.50;;;;;;;;;;5012107;28;20494;-47
2021/12/26 05:22:03;;;;;;;3.87;3.17;;;;;;;;;;5012038;28;20466;-46
2021/12/26 05:24:29;;;;;;;7.05;3.03;;;;;;;;;;5011704;28;20478;-47
2021/12/26 05:26:55;;;;;;;3.63;3.23;;;;;;;;;;5012054;28;20202;-48
2021/12/26 05:29:21;;;;;;;8.00;3.43;;;;;;;;;;5011908;28;20501;-51
2021/12/26 05:31:47;;;;;;;3.10;2.90;;;;;;;;;;5012030;28;20400;-47
2021/12/26 05:34:13;;;;;;;6.00;3.63;;;;;;;;;;5011987;28;20505;-47
2021/12/26 05:36:39;;;;;;;4.77;3.27;;;;;;;;;;5011105;28;20427;-48
2021/12/26 05:39:05;;;;;;;3.80;3.28;;;;;;;;;;5015722;28;20935;-48
2021/12/26 05:41:32;;;;;;;4.10;3.70;;;;;;;;;;5015980;28;20192;-48
2021/12/26 05:43:58;;;;;;;3.55;2.95;;;;;;;;;;5016203;28;20402;-48
2021/12/26 05:46:24;;;;;;;3.92;3.05;;;;;;;;;;5015270;28;20295;-48
2021/12/26 05:48:51;;;;;;;4.30;3.60;;;;;;;;;;5015847;28;20250;-48
2021/12/26 05:51:17;;;;;;;4.03;3.60;;;;;;;;;;5015889;28;20427;-48
2021/12/26 05:53:43;;;;;;;4.05;3.70;;;;;;;;;;5015582;28;20188;-48
2021/12/26 05:56:09;;;;;;;3.33;3.00;;;;;;;;;;5015082;28;20282;-48
2021/12/26 05:58:35;;;;;;;4.20;2.87;;;;;;;;;;5015595;28;20271;-48
2021/12/26 06:01:02;;;;;;;4.03;3.65;;;;;;;;;;5015577;28;20438;-48
2021/12/26 06:03:28;;;;;;;4.70;3.42;;;;;;;;;;5015599;28;20175;-47
2021/12/26 06:05:54;;;;;;;3.60;3.30;;;;;;;;;;5015176;28;20562;-48
2021/12/26 06:08:20;;;;;;;5.40;3.33;;;;;;;;;;5015326;28;20187;-50
2021/12/26 06:10:45;;;;;;;5.43;2.93;;;;;;;;;;5015436;28;20169;-51
2021/12/26 06:13:11;;;;;;;3.77;3.50;;;;;;;;;;5015428;28;20463;-48
2021/12/26 06:15:37;;;;;;;3.40;3.10;;;;;;;;;;5014555;28;20407;-47
2021/12/26 06:18:03;;;;;;;3.47;3.27;;;;;;;;;;5015271;28;20503;-47
2021/12/26 06:20:29;;;;;;;5.00;2.88;;;;;;;;;;5015312;28;20399;-48
2021/12/26 06:22:55;;;;;;;3.53;3.22;;;;;;;;;;5015123;28;20255;-48
2021/12/26 06:25:21;;;;;;;3.53;3.17;;;;;;;;;;5014607;28;20251;-48
2021/12/26 06:27:47;;;;;;;5.00;3.38;;;;;;;;;;5014868;28;20443;-48
2021/12/26 06:30:13;;;;;;;4.45;3.60;;;;;;;;;;5015320;28;20165;-48
2021/12/26 06:32:39;;;;;;;3.35;3.10;;;;;;;;;;5014980;28;20641;-48
2021/12/26 06:35:06;;;;;;;6.70;3.00;;;;;;;;;;5014394;28;20247;-49
2021/12/26 06:37:32;;;;;;;3.70;3.40;;;;;;;;;;5014708;28;20260;-48
2021/12/26 06:39:59;;;;;;;3.97;3.60;;;;;;;;;;5014879;28;20187;-48
2021/12/26 06:42:26;;;;;;;4.28;3.53;;;;;;;;;;5014932;28;20168;-47
2021/12/26 06:44:52;;;;;;;4.20;3.80;;;;;;;;;;5014400;28;20171;-48
2021/12/26 06:47:19;;;;;;;4.43;4.00;;;;;;;;;;5014661;28;20271;-48
2021/12/26 06:49:44;;;;;;;3.72;3.30;;;;;;;;;;5014376;28;20453;-48
2021/12/26 06:52:10;;;;;;;4.47;3.67;;;;;;;;;;5014524;28;20176;-48
2021/12/26 06:54:38;;;;;;;5.22;3.90;;;;;;;;;;5013908;28;20486;-50
2021/12/26 06:57:04;;;;;;;3.47;3.17;;;;;;;;;;5014469;28;20188;-48
2021/12/26 06:59:31;;;;;;;3.33;3.05;;;;;;;;;;5014580;28;20629;-48
2021/12/26 07:01:56;;;;;;;3.45;3.10;;;;;;;;;;5014499;28;20182;-47
2021/12/26 07:04:22;;;;;;;3.60;3.30;;;;;;;;;;5014388;28;20177;-48
2021/12/26 07:06:48;;;;;;;3.50;3.20;;;;;;;;;;5013533;28;20430;-48
2021/12/26 07:09:14;;;;;;;3.75;3.45;;;;;;;;;;5014467;28;20403;-48
2021/12/26 07:11:41;;;;;;;4.00;3.60;;;;;;;;;;5014330;28;20246;-46
2021/12/26 07:14:08;;;;;;;3.97;3.47;;;;;;;;;;5014304;28;20680;-48
2021/12/26 07:16:34;;;;;;;4.93;3.50;;;;;;;;;;5013470;28;20281;-50
2021/12/26 07:19:00;;;;;;;3.58;3.28;;;;;;;;;;5014213;28;20190;-47
2021/12/26 07:21:26;;;;;;;5.00;4.47;;;;;;;;;;5014018;28;20632;-48
2021/12/26 07:23:52;;;;;;;5.83;3.43;;;;;;;;;;5014089;28;20453;-48
2021/12/26 07:26:18;;;;;;;3.45;3.03;;;;;;;;;;5013298;28;20506;-48
2021/12/26 07:28:44;;;;;;;4.10;3.70;;;;;;;;;;5013870;28;20214;-48
2021/12/26 07:31:10;;;;;;;5.20;3.90;;;;;;;;;;5013987;28;20403;-48
2021/12/26 07:33:36;;;;;;;5.70;4.05;;;;;;;;;;5014358;28;20198;-48
2021/12/26 07:36:03;;;;;;;4.07;3.70;;;;;;;;;;5012910;28;20188;-48
2021/12/26 07:38:29;;;;;;;10.10;3.92;;;;;;;;;;5013829;28;20407;-48
2021/12/26 07:40:55;;;;;;;4.07;3.63;;;;;;;;;;5013725;28;20172;-47
2021/12/26 07:43:21;;;;;;;5.45;3.85;;;;;;;;;;5013785;28;20443;-48
2021/12/26 07:45:46;;;;;;;4.87;3.73;;;;;;;;;;5012891;28;20263;-48
2021/12/26 07:48:12;;;;;;;3.93;3.57;;;;;;;;;;5013748;28;20403;-48
2021/12/26 07:50:38;;;;;;;5.90;3.67;;;;;;;;;;5013957;28;20417;-48
2021/12/26 07:53:09;;;;;;;5.75;4.28;;;;;;;;;;5012369;28;20473;-48
2021/12/26 07:55:36;;;;;;;7.85;4.25;;;;;;;;;;5012152;28;20173;-48
2021/12/26 07:58:02;;;;;;;4.72;4.18;;;;;;;;;;5012994;28;20204;-48
2021/12/26 08:00:28;;;;;;;6.20;4.40;;;;;;;;;;5012191;28;20165;-48
2021/12/26 08:02:55;;;;;;;8.70;4.97;;;;;;;;;;5012871;28;20176;-48
2021/12/26 08:05:21;;;;;;;6.75;3.95;;;;;;;;;;5012227;28;20176;-48
2021/12/26 08:07:47;;;;;;;4.15;3.03;;;;;;;;;;5012507;28;20679;-47
2021/12/26 08:10:13;;;;;;;4.95;3.80;;;;;;;;;;5012784;28;20164;-48
2021/12/26 08:12:39;;;;;;;4.93;3.73;;;;;;;;;;5012553;28;20172;-48
2021/12/26 08:15:05;;;;;;;5.13;3.55;;;;;;;;;;5012015;28;20410;-48
2021/12/26 08:17:31;;;;;;;4.13;3.72;;;;;;;;;;5012319;28;20673;-48
2021/12/26 08:19:58;;;;;;;9.20;4.18;;;;;;;;;;5012530;28;20218;-48
2021/12/26 08:22:25;;;;;;;9.82;4.57;;;;;;;;;;5013024;28;20242;-48
2021/12/26 08:24:51;;;;;;;7.00;4.50;;;;;;;;;;5012280;28;20641;-48
2021/12/26 08:27:17;;;;;;;7.43;4.10;;;;;;;;;;5012499;28;20199;-48
2021/12/26 08:29:43;;;;;;;5.50;3.80;;;;;;;;;;5012689;28;20541;-48
2021/12/26 08:32:13;;;;;;;5.50;4.00;;;;;;;;;;5012712;28;20171;-48
2021/12/26 08:34:39;;;;;;;3.92;3.63;;;;;;;;;;5012077;28;20482;-48
2021/12/26 08:37:05;;;;;;;5.50;4.38;;;;;;;;;;5012609;28;20207;-48
2021/12/26 08:39:32;;;;;;;6.85;3.90;;;;;;;;;;5012670;28;20191;-49
2021/12/26 08:41:59;;;;;;;8.05;4.85;;;;;;;;;;5012644;28;20168;-47
2021/12/26 08:44:25;;;;;;;4.60;3.88;;;;;;;;;;5012619;28;20550;-48
2021/12/26 08:46:52;;;;;;;6.65;4.60;;;;;;;;;;5011756;28;20192;-48
2021/12/26 08:49:18;;;;;;;6.25;4.25;;;;;;;;;;5011236;28;20176;-48
2021/12/26 08:51:44;;;;;;;6.35;5.35;;;;;;;;;;5012731;28;20226;-48
2021/12/26 08:54:11;;;;;;;4.95;4.40;;;;;;;;;;5012383;28;20203;-48
2021/12/26 08:56:37;;;;;;;7.45;4.38;;;;;;;;;;5011650;28;20191;-48
2021/12/26 08:59:03;;;;;;;6.18;4.85;;;;;;;;;;5012383;28;20647;-48
2021/12/26 09:01:29;;;;;;;4.22;3.83;;;;;;;;;;5012849;28;20165;-48
2021/12/26 09:03:55;;;;;;;5.45;4.40;;;;;;;;;;5012247;28;20187;-48
2021/12/26 09:06:21;;;;;;;6.30;4.60;;;;;;;;;;5011859;28;20271;-48
2021/12/26 09:08:47;;;;;;;4.65;4.25;;;;;;;;;;5012238;28;20396;-48
2021/12/26 09:11:15;;;;;;;12.80;5.17;;;;;;;;;;5012149;28;20574;-48
2021/12/26 09:13:42;;;;;;;9.82;4.45;;;;;;;;;;5012112;28;20455;-48
2021/12/26 09:16:08;;;;;;;5.53;5.07;;;;;;;;;;5011276;28;20678;-47
2021/12/26 09:18:34;;;;;;;4.38;3.80;;;;;;;;;;5011974;28;20192;-49
2021/12/26 09:21:00;;;;;;;5.30;4.50;;;;;;;;;;5012199;28;20215;-48
2021/12/26 09:23:26;;;;;;;5.23;3.97;;;;;;;;;;5012099;28;20809;-50
2021/12/26 09:25:52;;;;;;;6.37;4.10;;;;;;;;;;5011153;28;20467;-48
2021/12/26 09:28:18;;;;;;;5.60;4.90;;;;;;;;;;5011782;28;20431;-48
2021/12/26 09:30:44;;;;;;;4.63;4.13;;;;;;;;;;5011955;28;20415;-47
2021/12/26 09:33:10;;;;;;;5.70;4.70;;;;;;;;;;5011369;28;20200;-48
2021/12/26 09:35:36;;;;;;;5.23;4.73;;;;;;;;;;5011227;28;20703;-48
2021/12/26 09:38:02;;;;;;;7.28;4.90;;;;;;;;;;5011951;28;20914;-48
2021/12/26 09:40:28;;;;;;;6.95;4.10;;;;;;;;;;5012223;28;20502;-47
2021/12/26 09:42:54;;;;;;;9.87;5.17;;;;;;;;;;5011858;28;20175;-48
2021/12/26 09:45:20;;;;;;;5.90;4.57;;;;;;;;;;5011165;28;20694;-48
2021/12/26 09:47:50;;;;;;;5.55;4.38;;;;;;;;;;5011676;28;20184;-50
2021/12/26 09:50:17;;;;;;;4.90;4.20;;;;;;;;;;5011861;28;20577;-48
2021/12/26 09:52:44;;;;;;;7.03;5.00;;;;;;;;;;5011757;28;20176;-48
2021/12/26 09:55:11;;;;;;;7.80;4.60;;;;;;;;;;5011141;28;20180;-49
2021/12/26 09:57:37;;;;;;;7.18;5.22;;;;;;;;;;5011616;28;20744;-48
2021/12/26 10:00:17;;;;;;;5.30;4.80;;;;;;;;;;5011974;28;20245;-48
2021/12/26 10:02:43;;;;;;;5.80;5.00;;;;;;;;;;5011733;28;20445;-48
2021/12/26 10:05:09;;;;;;;10.03;5.07;;;;;;;;;;5011244;28;20172;-49
2021/12/26 10:07:35;;;;;;;6.53;4.80;;;;;;;;;;5011519;28;20503;-50
2021/12/26 10:10:05;;;;;;;8.43;4.90;;;;;;;;;;5011838;28;20883;-48
2021/12/26 10:12:38;;;;;;;5.57;4.45;;;;;;;;;;5011614;28;20173;-48
2021/12/26 10:15:04;;;;;;;7.15;4.90;;;;;;;;;;5011016;28;20171;-48
2021/12/26 10:17:31;;;;;;;5.45;4.15;;;;;;;;;;5011384;28;20662;-48
2021/12/26 10:20:03;;;;;;;7.20;5.20;;;;;;;;;;5011544;28;20159;-50
2021/12/26 10:22:30;;;;;;;7.07;5.22;;;;;;;;;;5007393;28;20176;-50
2021/12/26 10:24:56;;;;;;;6.07;5.45;;;;;;;;;;5014294;28;20164;-47
2021/12/26 10:27:23;;;;;;;8.18;4.95;;;;;;;;;;5015142;28;20196;-48
2021/12/26 10:29:50;;;;;;;6.03;4.85;;;;;;;;;;5013806;28;20203;-47
2021/12/26 10:32:29;;;;;;;10.35;5.53;;;;;;;;;;5015150;28;20181;-48
2021/12/26 10:34:59;;;;;;;7.38;5.00;;;;;;;;;;5014423;28;20188;-49
2021/12/26 10:37:30;;;;;;;5.97;5.00;;;;;;;;;;5014747;28;20328;-49
2021/12/26 10:39:57;;;;;;;6.43;5.07;;;;;;;;;;5014767;28;20174;-48
2021/12/26 10:42:30;;;;;;;9.15;5.40;;;;;;;;;;5014784;28;20172;-52
2021/12/26 10:44:57;;;;;;;6.95;5.63;;;;;;;;;;5014189;28;20631;-49
2021/12/26 10:47:25;;;;;;;7.13;5.30;;;;;;;;;;5014265;28;20189;-51
2021/12/26 10:49:53;;;;;;;7.40;6.13;;;;;;;;;;5052028;23;20226;-52
2021/12/26 10:52:21;;;;;;;8.50;5.63;;;;;;;;;;5073341;28;20686;-52
2021/12/26 10:54:52;;;;;;;6.57;5.88;;;;;;;;;;5072257;28;20288;-52
2021/12/26 10:57:20;;;;;;;10.80;7.13;;;;;;;;;;5073173;28;20174;-51
2021/12/26 10:59:47;;;;;;;6.47;5.40;;;;;;;;;;5072973;28;20178;-51
2021/12/26 11:02:24;;;;;;;6.78;6.03;;;;;;;;;;5073095;28;20166;-54
2021/12/26 11:04:54;;;;;;;6.93;5.28;;;;;;;;;;5072560;28;20587;-53
2021/12/26 11:07:20;;;;;;;6.93;5.90;;;;;;;;;;5072840;28;20220;-53
2021/12/26 11:09:46;;;;;;;7.15;5.85;;;;;;;;;;5072997;28;20685;-54
2021/12/26 11:12:12;;;;;;;10.47;5.87;;;;;;;;;;5072805;28;20173;-53
2021/12/26 11:14:58;;;;;;;6.00;5.23;;;;;;;;;;5072224;28;21093;-54
2021/12/26 11:17:34;;;;;;;12.32;6.28;;;;;;;;;;5072910;28;20397;-54
2021/12/26 11:20:01;;;;;;;7.88;6.03;;;;;;;;;;5072784;28;20186;-54
2021/12/26 11:22:27;;;;;;;10.77;6.40;;;;;;;;;;5073015;28;20166;-54
2021/12/26 11:24:53;;;;;;;8.07;6.30;;;;;;;;;;5072158;28;20641;-53
2021/12/26 11:27:22;;;;;;;9.60;6.70;;;;;;;;;;5072662;28;20171;-53
2021/12/26 11:29:48;;;;;;;8.40;6.50;;;;;;;;;;5074753;28;20202;-54
2021/12/26 11:32:18;;;;;;;8.35;6.10;;;;;;;;;;5072067;28;20177;-53
2021/12/26 11:37:29;;;;;;;7.90;6.40;;;;;;;;;;5701885;22;21040;-49
2021/12/26 11:39:56;;;;;;;11.30;8.47;;;;;;;;;;4974288;28;1166672;-48
2021/12/26 11:42:33;;;;;;;9.00;6.10;;;;;;;;;;5013843;28;20254;-49
2021/12/26 11:45:18;;;;;;;6.82;6.05;;;;;;;;;;5014907;28;20181;-49
2021/12/26 11:47:58;;;;;;;9.57;6.00;;;;;;;;;;5013914;28;20702;-48
2021/12/26 11:50:52;;;;;;;8.25;5.93;;;;;;;;;;5014062;28;20643;-48
2021/12/26 11:53:18;;;;;;;7.88;6.30;;;;;;;;;;5014068;28;20184;-48
2021/12/26 11:55:50;;;;;;;9.33;6.80;;;;;;;;;;5013349;28;20180;-49
2021/12/26 11:58:39;;;;;;;8.60;6.95;;;;;;;;;;5009461;28;20435;-50
2021/12/26 12:01:06;;;;;;;9.07;6.55;;;;;;;;;;4986966;28;20191;-49
2021/12/26 12:03:32;;;;;;;11.05;6.43;;;;;;;;;;5014540;28;20635;-50
2021/12/26 12:05:59;;;;;;;11.30;6.75;;;;;;;;;;5014581;28;20175;-50
2021/12/26 12:08:24;;;;;;;7.60;6.55;;;;;;;;;;5013823;28;20188;-49
2021/12/26 12:10:54;;;;;;;10.93;5.70;;;;;;;;;;5013671;28;20661;-50
2021/12/26 12:13:23;;;;;;;8.80;6.68;;;;;;;;;;5014061;28;20474;-50
2021/12/26 12:15:52;;;;;;;8.20;6.90;;;;;;;;;;4996398;28;20175;-50
2021/12/26 12:18:29;;;;;;;10.13;6.80;;;;;;;;;;5013713;28;20180;-48
2021/12/26 12:21:07;;;;;;;11.93;7.07;;;;;;;;;;5014247;28;20161;-49
2021/12/26 12:23:33;;;;;;;11.45;7.82;;;;;;;;;;5014209;28;20545;-49
2021/12/26 12:25:59;;;;;;;11.43;7.05;;;;;;;;;;5014466;28;20624;-49
2021/12/26 12:28:25;;;;;;;13.05;7.18;;;;;;;;;;5014274;28;20220;-49
2021/12/26 12:30:56;;;;;;;8.90;6.60;;;;;;;;;;5014775;28;20181;-48
2021/12/26 12:33:28;;;;;;;10.63;7.43;;;;;;;;;;5014534;28;20978;-49
2021/12/26 12:36:11;;;;;;;8.10;6.60;;;;;;;;;;5014077;28;20195;-49
2021/12/26 12:38:40;;;;;;;7.97;6.65;;;;;;;;;;5014326;28;20188;-50
2021/12/26 12:41:09;;;;;;;15.23;7.18;;;;;;;;;;5014069;28;20180;-49
2021/12/26 12:43:46;;;;;;;11.05;7.13;;;;;;;;;;5014416;28;20187;-50
2021/12/26 12:46:13;;;;;;;7.55;6.75;;;;;;;;;;5013140;28;20211;-51
2021/12/26 12:49:01;;;;;;;10.57;7.10;;;;;;;;;;5013430;28;20188;-49
2021/12/26 12:51:27;;;;;;;11.68;7.15;;;;;;;;;;5013467;28;20679;-50
2021/12/26 12:53:55;;;;;;;10.27;8.33;;;;;;;;;;5013296;28;20192;-49
2021/12/26 12:56:30;;;;;;;12.23;7.93;;;;;;;;;;5013619;28;20539;-49
2021/12/26 12:59:15;;;;;;;11.43;7.60;;;;;;;;;;5013391;28;20164;-49
2021/12/26 13:01:47;;;;;;;9.07;7.53;;;;;;;;;;5013176;28;20703;-50
2021/12/26 13:04:14;;;;;;;9.93;7.43;;;;;;;;;;5013206;28;20176;-50
2021/12/26 13:06:55;;;;;;;10.93;7.35;;;;;;;;;;5013629;28;20178;-50
2021/12/26 13:09:21;;;;;;;12.15;8.30;;;;;;;;;;5013360;28;20554;-50
2021/12/26 13:11:51;;;;;;;11.68;7.03;;;;;;;;;;5013594;28;20527;-51
2021/12/26 13:14:36;;;;;;;7.82;6.95;;;;;;;;;;5013518;28;20206;-51
2021/12/26 13:17:02;;;;;;;9.02;7.00;;;;;;;;;;5013036;28;20214;-50
2021/12/26 13:19:28;;;;;;;13.13;8.60;;;;;;;;;;5013451;28;20535;-50
2021/12/26 13:21:57;;;;;;;11.73;8.00;;;;;;;;;;5014142;28;20176;-50
2021/12/26 13:24:28;;;;;;;12.93;8.43;;;;;;;;;;5013708;28;20400;-49
2021/12/26 13:26:54;;;;;;;11.18;8.10;;;;;;;;;;5012549;28;20226;-50
2021/12/26 13:29:20;;;;;;;11.97;8.20;;;;;;;;;;5013691;28;20579;-49
2021/12/26 13:31:46;;;;;;;11.17;9.03;;;;;;;;;;5013508;28;20751;-51
2021/12/26 13:34:14;;;;;;;15.67;8.90;;;;;;;;;;5013361;28;20454;-51
2021/12/26 13:36:39;;;;;;;14.82;8.20;;;;;;;;;;5013740;28;20457;-49
2021/12/26 13:39:06;;;;;;;14.60;8.37;;;;;;;;;;5014344;28;20389;-50
2021/12/26 13:41:32;;;;;;;11.75;8.57;;;;;;;;;;5014231;28;20410;-49
2021/12/26 13:44:02;;;;;;;11.57;8.32;;;;;;;;;;5014090;28;20529;-51
2021/12/26 13:46:32;;;;;;;14.73;9.38;;;;;;;;;;5014080;28;20180;-49
2021/12/26 13:48:58;;;;;;;10.55;7.43;;;;;;;;;;5013837;28;20196;-50
2021/12/26 13:51:26;;;;;;;11.52;8.10;;;;;;;;;;5013588;28;20176;-51
2021/12/26 13:54:12;;;;;;;14.07;9.35;;;;;;;;;;5014205;28;20202;-50
2021/12/26 13:56:52;;;;;;;13.43;9.02;;;;;;;;;;4996735;28;20185;-50
2021/12/26 13:59:27;;;;;;;14.90;9.32;;;;;;;;;;5015891;28;20156;-51
2021/12/26 14:01:54;;;;;;;15.48;9.00;;;;;;;;;;5018232;28;20164;-50
2021/12/26 14:04:24;;;;;;;14.23;9.02;;;;;;;;;;4999951;28;20267;-49
2021/12/26 14:06:50;;;;;;;12.95;9.85;;;;;;;;;;5017144;28;20246;-49
2021/12/26 14:09:16;;;;;;;13.13;9.50;;;;;;;;;;5017875;28;20168;-49
2021/12/26 14:11:42;;;;;;;16.42;9.75;;;;;;;;;;5017865;28;20408;-50
2021/12/26 14:14:08;;;;;;;11.00;8.53;;;;;;;;;;5018517;28;20687;-49
2021/12/26 14:16:41;;;;;;;11.95;9.35;;;;;;;;;;5017996;28;20427;-49
2021/12/26 14:19:09;;;;;;;13.48;9.55;;;;;;;;;;5018318;28;20187;-49
2021/12/26 14:21:45;;;;;;;14.23;9.80;;;;;;;;;;5017958;28;20445;-50
2021/12/26 14:24:11;;;;;;;11.23;9.07;;;;;;;;;;5017442;28;20212;-50
2021/12/26 14:26:42;;;;;;;13.07;8.10;;;;;;;;;;5017546;28;20176;-50
2021/12/26 14:29:13;;;;;;;16.85;9.38;;;;;;;;;;5017876;28;20517;-51
2021/12/26 14:31:41;;;;;;;14.57;9.93;;;;;;;;;;5017739;28;20178;-51
2021/12/26 14:34:11;;;;;;;15.27;9.75;;;;;;;;;;5017167;28;20269;-51
2021/12/26 14:36:45;;;;;;;13.35;9.40;;;;;;;;;;5017018;28;20179;-51
2021/12/26 14:39:11;;;;;;;12.95;9.02;;;;;;;;;;5017217;28;20176;-49
2021/12/26 14:41:41;;;;;;;16.98;11.27;;;;;;;;;;5017445;28;20172;-50
2021/12/26 14:44:16;;;;;;;17.05;10.73;;;;;;;;;;5016867;28;20168;-50
2021/12/26 14:46:43;;;;;;;14.93;10.07;;;;;;;;;;5016500;28;20242;-50
2021/12/26 14:49:13;;;;;;;15.07;9.80;;;;;;;;;;5017089;28;20173;-51
2021/12/26 14:51:39;;;;;;;18.73;9.45;;;;;;;;;;5016275;28;20211;-51
2021/12/26 14:54:10;;;;;;;15.75;9.55;;;;;;;;;;5015969;28;20203;-49